sensor_id;sensor_type;location;lat;lon;timestamp;P1;durP1;ratioP1;P2;durP2;ratioP2
45905;SDS011;31619;49.008;12.106;2023-04-09T00:01:07;8.63;;;7.82;;
45905;SDS011;31619;49.008;12.106;2023-04-09T00:03:35;8.10;;;7.40;;
45905;SDS011;31619;49.008;12.106;2023-04-09T00:06:01;8.88;;;8.07;;
45905;SDS011;31619;49.008;12.106;2023-04-09T00:08:27;9.75;;;8.80;;
45905;SDS011;31619;49.008;12.106;2023-04-09T00:10:53;8.57;;;7.78;;
45905;SDS011;31619;49.008;12.106;2023-04-09T00:13:19;8.38;;;7.57;;
45905;SDS011;31619;49.008;12.106;2023-04-09T00:15:45;8.75;;;7.88;;
45905;SDS011;31619;49.008;12.106;2023-04-09T00:18:12;9.15;;;8.25;;
45905;SDS011;31619;49.008;12.106;2023-04-09T00:20:38;9.68;;;8.68;;
45905;SDS011;31619;49.008;12.106;2023-04-09T00:23:04;8.93;;;8.13;;
45905;SDS011;31619;49.008;12.106;2023-04-09T00:25:30;9.98;;;8.98;;
45905;SDS011;31619;49.008;12.106;2023-04-09T00:27:56;10.43;;;9.32;;
45905;SDS011;31619;49.008;12.106;2023-04-09T00:30:22;10.18;;;9.18;;
45905;SDS011;31619;49.008;12.106;2023-04-09T00:32:47;9.18;;;8.27;;
45905;SDS011;31619;49.008;12.106;2023-04-09T00:35:13;9.60;;;8.70;;
45905;SDS011;31619;49.008;12.106;2023-04-09T00:37:41;10.02;;;9.02;;
45905;SDS011;31619;49.008;12.106;2023-04-09T00:40:07;9.57;;;8.68;;
45905;SDS011;31619;49.008;12.106;2023-04-09T00:42:33;10.13;;;9.13;;
45905;SDS011;31619;49.008;12.106;2023-04-09T00:44:59;10.50;;;9.50;;
45905;SDS011;31619;49.008;12.106;2023-04-09T00:47:26;9.68;;;8.77;;
45905;SDS011;31619;49.008;12.106;2023-04-09T00:49:53;9.90;;;8.90;;
45905;SDS011;31619;49.008;12.106;2023-04-09T00:52:19;9.70;;;8.55;;
45905;SDS011;31619;49.008;12.106;2023-04-09T00:54:46;9.05;;;8.25;;
45905;SDS011;31619;49.008;12.106;2023-04-09T00:57:13;10.52;;;9.52;;
45905;SDS011;31619;49.008;12.106;2023-04-09T00:59:39;10.70;;;9.63;;
45905;SDS011;31619;49.008;12.106;2023-04-09T01:02:05;9.52;;;8.65;;
45905;SDS011;31619;49.008;12.106;2023-04-09T01:04:31;9.10;;;8.30;;
45905;SDS011;31619;49.008;12.106;2023-04-09T01:06:58;10.07;;;9.07;;
45905;SDS011;31619;49.008;12.106;2023-04-09T01:09:34;9.23;;;8.32;;
45905;SDS011;31619;49.008;12.106;2023-04-09T01:14:55;9.60;;;8.68;;
45905;SDS011;31619;49.008;12.106;2023-04-09T01:17:43;10.15;;;9.25;;
45905;SDS011;31619;49.008;12.106;2023-04-09T01:20:34;9.88;;;8.95;;
45905;SDS011;31619;49.008;12.106;2023-04-09T01:23:17;10.77;;;9.63;;
45905;SDS011;31619;49.008;12.106;2023-04-09T01:31:10;11.65;;;9.35;;
45905;SDS011;31619;49.008;12.106;2023-04-09T01:33:40;11.05;;;9.10;;
45905;SDS011;31619;49.008;12.106;2023-04-09T01:36:07;10.10;;;9.20;;
45905;SDS011;31619;49.008;12.106;2023-04-09T01:38:38;10.68;;;9.65;;
45905;SDS011;31619;49.008;12.106;2023-04-09T01:41:06;10.70;;;9.63;;
45905;SDS011;31619;49.008;12.106;2023-04-09T01:43:35;11.02;;;9.93;;
45905;SDS011;31619;49.008;12.106;2023-04-09T01:46:02;10.45;;;9.40;;
45905;SDS011;31619;49.008;12.106;2023-04-09T01:48:28;9.27;;;8.32;;
45905;SDS011;31619;49.008;12.106;2023-04-09T01:50:55;11.30;;;9.75;;
45905;SDS011;31619;49.008;12.106;2023-04-09T01:53:22;11.48;;;10.27;;
45905;SDS011;31619;49.008;12.106;2023-04-09T01:55:48;12.00;;;9.95;;
45905;SDS011;31619;49.008;12.106;2023-04-09T01:58:14;11.68;;;9.73;;
45905;SDS011;31619;49.008;12.106;2023-04-09T02:00:44;11.23;;;10.02;;
45905;SDS011;31619;49.008;12.106;2023-04-09T02:06:03;10.98;;;9.80;;
45905;SDS011;31619;49.008;12.106;2023-04-09T02:08:38;11.88;;;10.68;;
45905;SDS011;31619;49.008;12.106;2023-04-09T02:11:10;11.45;;;10.35;;
45905;SDS011;31619;49.008;12.106;2023-04-09T02:13:39;12.25;;;10.38;;
45905;SDS011;31619;49.008;12.106;2023-04-09T02:16:05;11.90;;;10.68;;
45905;SDS011;31619;49.008;12.106;2023-04-09T02:18:32;11.57;;;10.23;;
45905;SDS011;31619;49.008;12.106;2023-04-09T02:20:58;11.00;;;9.93;;
45905;SDS011;31619;49.008;12.106;2023-04-09T02:23:25;11.57;;;10.38;;
45905;SDS011;31619;49.008;12.106;2023-04-09T02:25:53;13.90;;;11.32;;
45905;SDS011;31619;49.008;12.106;2023-04-09T02:28:19;12.32;;;11.13;;
45905;SDS011;31619;49.008;12.106;2023-04-09T02:30:44;12.93;;;10.90;;
45905;SDS011;31619;49.008;12.106;2023-04-09T02:33:10;12.18;;;10.88;;
45905;SDS011;31619;49.008;12.106;2023-04-09T02:35:36;12.27;;;11.07;;
45905;SDS011;31619;49.008;12.106;2023-04-09T02:38:01;13.60;;;12.20;;
45905;SDS011;31619;49.008;12.106;2023-04-09T02:40:27;14.47;;;12.03;;
45905;SDS011;31619;49.008;12.106;2023-04-09T02:42:53;12.53;;;11.10;;
45905;SDS011;31619;49.008;12.106;2023-04-09T02:45:19;12.60;;;10.98;;
45905;SDS011;31619;49.008;12.106;2023-04-09T02:47:44;13.37;;;11.77;;
45905;SDS011;31619;49.008;12.106;2023-04-09T02:50:10;12.83;;;11.23;;
45905;SDS011;31619;49.008;12.106;2023-04-09T02:52:36;13.57;;;10.90;;
45905;SDS011;31619;49.008;12.106;2023-04-09T02:55:01;13.27;;;10.90;;
45905;SDS011;31619;49.008;12.106;2023-04-09T02:57:27;12.93;;;10.98;;
45905;SDS011;31619;49.008;12.106;2023-04-09T02:59:53;11.80;;;10.40;;
45905;SDS011;31619;49.008;12.106;2023-04-09T03:02:18;12.93;;;11.48;;
45905;SDS011;31619;49.008;12.106;2023-04-09T03:04:44;13.33;;;11.97;;
45905;SDS011;31619;49.008;12.106;2023-04-09T03:07:10;12.63;;;11.33;;
45905;SDS011;31619;49.008;12.106;2023-04-09T03:09:35;14.80;;;12.00;;
45905;SDS011;31619;49.008;12.106;2023-04-09T03:12:01;14.65;;;11.85;;
45905;SDS011;31619;49.008;12.106;2023-04-09T03:14:27;12.48;;;11.20;;
45905;SDS011;31619;49.008;12.106;2023-04-09T03:16:52;14.20;;;12.05;;
45905;SDS011;31619;49.008;12.106;2023-04-09T03:19:18;14.23;;;11.93;;
45905;SDS011;31619;49.008;12.106;2023-04-09T03:21:43;15.00;;;12.95;;
45905;SDS011;31619;49.008;12.106;2023-04-09T03:24:10;16.00;;;12.73;;
45905;SDS011;31619;49.008;12.106;2023-04-09T03:26:36;15.77;;;12.63;;
45905;SDS011;31619;49.008;12.106;2023-04-09T03:29:02;15.37;;;12.10;;
45905;SDS011;31619;49.008;12.106;2023-04-09T03:31:28;14.20;;;12.47;;
45905;SDS011;31619;49.008;12.106;2023-04-09T03:33:54;14.47;;;12.37;;
45905;SDS011;31619;49.008;12.106;2023-04-09T03:36:19;13.87;;;12.43;;
45905;SDS011;31619;49.008;12.106;2023-04-09T03:38:45;12.90;;;11.37;;
45905;SDS011;31619;49.008;12.106;2023-04-09T03:41:11;12.10;;;10.77;;
45905;SDS011;31619;49.008;12.106;2023-04-09T03:43:36;13.67;;;11.73;;
45905;SDS011;31619;49.008;12.106;2023-04-09T03:46:09;13.53;;;11.60;;
45905;SDS011;31619;49.008;12.106;2023-04-09T03:48:36;16.13;;;11.87;;
45905;SDS011;31619;49.008;12.106;2023-04-09T03:51:02;12.97;;;11.20;;
45905;SDS011;31619;49.008;12.106;2023-04-09T03:53:27;13.10;;;10.90;;
45905;SDS011;31619;49.008;12.106;2023-04-09T03:55:53;12.93;;;11.53;;
45905;SDS011;31619;49.008;12.106;2023-04-09T03:58:18;11.70;;;10.30;;
45905;SDS011;31619;49.008;12.106;2023-04-09T04:00:44;12.00;;;10.70;;
45905;SDS011;31619;49.008;12.106;2023-04-09T04:03:10;13.53;;;11.57;;
45905;SDS011;31619;49.008;12.106;2023-04-09T04:05:36;13.40;;;10.97;;
45905;SDS011;31619;49.008;12.106;2023-04-09T04:08:01;14.80;;;12.07;;
45905;SDS011;31619;49.008;12.106;2023-04-09T04:10:27;13.80;;;12.35;;
45905;SDS011;31619;49.008;12.106;2023-04-09T04:12:52;14.57;;;12.05;;
45905;SDS011;31619;49.008;12.106;2023-04-09T04:15:18;13.18;;;11.27;;
45905;SDS011;31619;49.008;12.106;2023-04-09T04:17:44;13.80;;;11.90;;
45905;SDS011;31619;49.008;12.106;2023-04-09T04:20:10;13.07;;;11.48;;
45905;SDS011;31619;49.008;12.106;2023-04-09T04:22:36;14.03;;;11.90;;
45905;SDS011;31619;49.008;12.106;2023-04-09T04:25:02;13.40;;;11.37;;
45905;SDS011;31619;49.008;12.106;2023-04-09T04:27:28;12.83;;;10.73;;
45905;SDS011;31619;49.008;12.106;2023-04-09T04:29:55;14.57;;;11.80;;
45905;SDS011;31619;49.008;12.106;2023-04-09T04:32:22;13.20;;;11.27;;
45905;SDS011;31619;49.008;12.106;2023-04-09T04:34:48;13.68;;;11.80;;
45905;SDS011;31619;49.008;12.106;2023-04-09T04:37:14;13.43;;;11.30;;
45905;SDS011;31619;49.008;12.106;2023-04-09T04:39:40;12.53;;;11.20;;
45905;SDS011;31619;49.008;12.106;2023-04-09T04:42:05;13.70;;;12.07;;
45905;SDS011;31619;49.008;12.106;2023-04-09T04:44:31;11.95;;;10.75;;
45905;SDS011;31619;49.008;12.106;2023-04-09T04:46:56;13.30;;;11.63;;
45905;SDS011;31619;49.008;12.106;2023-04-09T04:49:22;12.27;;;10.77;;
45905;SDS011;31619;49.008;12.106;2023-04-09T04:51:47;11.70;;;10.40;;
45905;SDS011;31619;49.008;12.106;2023-04-09T04:54:13;12.83;;;11.00;;
45905;SDS011;31619;49.008;12.106;2023-04-09T04:56:40;11.97;;;10.23;;
45905;SDS011;31619;49.008;12.106;2023-04-09T04:59:05;12.85;;;11.52;;
45905;SDS011;31619;49.008;12.106;2023-04-09T05:01:31;15.33;;;11.67;;
45905;SDS011;31619;49.008;12.106;2023-04-09T05:03:57;13.00;;;10.98;;
45905;SDS011;31619;49.008;12.106;2023-04-09T05:06:22;14.27;;;12.00;;
45905;SDS011;31619;49.008;12.106;2023-04-09T05:08:48;12.57;;;11.05;;
45905;SDS011;31619;49.008;12.106;2023-04-09T05:11:13;14.57;;;12.37;;
45905;SDS011;31619;49.008;12.106;2023-04-09T05:13:40;13.90;;;12.37;;
45905;SDS011;31619;49.008;12.106;2023-04-09T05:16:06;16.03;;;13.27;;
45905;SDS011;31619;49.008;12.106;2023-04-09T05:18:32;15.43;;;13.20;;
45905;SDS011;31619;49.008;12.106;2023-04-09T05:20:57;16.30;;;14.25;;
45905;SDS011;31619;49.008;12.106;2023-04-09T05:23:23;16.17;;;13.37;;
45905;SDS011;31619;49.008;12.106;2023-04-09T05:25:48;18.60;;;14.25;;
45905;SDS011;31619;49.008;12.106;2023-04-09T05:28:14;16.05;;;14.35;;
45905;SDS011;31619;49.008;12.106;2023-04-09T05:30:46;17.93;;;14.63;;
45905;SDS011;31619;49.008;12.106;2023-04-09T05:33:11;18.27;;;15.43;;
45905;SDS011;31619;49.008;12.106;2023-04-09T05:35:37;20.00;;;16.43;;
45905;SDS011;31619;49.008;12.106;2023-04-09T05:38:03;17.80;;;14.13;;
45905;SDS011;31619;49.008;12.106;2023-04-09T05:40:29;18.20;;;15.13;;
45905;SDS011;31619;49.008;12.106;2023-04-09T05:42:55;17.35;;;15.07;;
45905;SDS011;31619;49.008;12.106;2023-04-09T05:45:20;17.67;;;14.23;;
45905;SDS011;31619;49.008;12.106;2023-04-09T05:47:46;17.55;;;14.93;;
45905;SDS011;31619;49.008;12.106;2023-04-09T05:50:12;18.38;;;15.68;;
45905;SDS011;31619;49.008;12.106;2023-04-09T05:52:38;18.45;;;16.00;;
45905;SDS011;31619;49.008;12.106;2023-04-09T05:55:03;15.52;;;13.82;;
45905;SDS011;31619;49.008;12.106;2023-04-09T05:57:30;16.52;;;13.93;;
45905;SDS011;31619;49.008;12.106;2023-04-09T05:59:56;18.20;;;14.85;;
45905;SDS011;31619;49.008;12.106;2023-04-09T06:02:22;17.85;;;13.85;;
45905;SDS011;31619;49.008;12.106;2023-04-09T06:04:49;17.20;;;14.55;;
45905;SDS011;31619;49.008;12.106;2023-04-09T06:07:14;14.80;;;13.20;;
45905;SDS011;31619;49.008;12.106;2023-04-09T06:09:40;18.27;;;15.23;;
45905;SDS011;31619;49.008;12.106;2023-04-09T06:12:08;18.33;;;15.35;;
45905;SDS011;31619;49.008;12.106;2023-04-09T06:14:34;17.27;;;15.40;;
45905;SDS011;31619;49.008;12.106;2023-04-09T06:16:59;17.70;;;14.77;;
45905;SDS011;31619;49.008;12.106;2023-04-09T06:19:25;20.48;;;16.73;;
45905;SDS011;31619;49.008;12.106;2023-04-09T06:21:51;18.13;;;14.82;;
45905;SDS011;31619;49.008;12.106;2023-04-09T06:24:16;17.17;;;15.05;;
45905;SDS011;31619;49.008;12.106;2023-04-09T06:26:42;17.77;;;15.52;;
45905;SDS011;31619;49.008;12.106;2023-04-09T06:29:07;19.15;;;15.70;;
45905;SDS011;31619;49.008;12.106;2023-04-09T06:31:33;17.00;;;14.35;;
45905;SDS011;31619;49.008;12.106;2023-04-09T06:33:58;17.38;;;15.30;;
45905;SDS011;31619;49.008;12.106;2023-04-09T06:36:24;17.40;;;15.05;;
45905;SDS011;31619;49.008;12.106;2023-04-09T06:38:51;16.45;;;14.63;;
45905;SDS011;31619;49.008;12.106;2023-04-09T06:41:20;20.20;;;16.23;;
45905;SDS011;31619;49.008;12.106;2023-04-09T06:43:47;18.40;;;14.90;;
45905;SDS011;31619;49.008;12.106;2023-04-09T06:46:12;18.45;;;15.57;;
45905;SDS011;31619;49.008;12.106;2023-04-09T06:48:41;18.65;;;16.50;;
45905;SDS011;31619;49.008;12.106;2023-04-09T06:51:08;17.50;;;14.73;;
45905;SDS011;31619;49.008;12.106;2023-04-09T06:53:38;19.25;;;15.93;;
45905;SDS011;31619;49.008;12.106;2023-04-09T06:56:04;21.33;;;17.40;;
45905;SDS011;31619;49.008;12.106;2023-04-09T06:58:30;23.73;;;18.33;;
45905;SDS011;31619;49.008;12.106;2023-04-09T07:00:56;21.40;;;17.65;;
45905;SDS011;31619;49.008;12.106;2023-04-09T07:03:21;22.13;;;17.80;;
45905;SDS011;31619;49.008;12.106;2023-04-09T07:05:47;21.27;;;16.95;;
45905;SDS011;31619;49.008;12.106;2023-04-09T07:08:13;21.10;;;17.45;;
45905;SDS011;31619;49.008;12.106;2023-04-09T07:10:39;23.42;;;18.77;;
45905;SDS011;31619;49.008;12.106;2023-04-09T07:13:05;22.75;;;18.20;;
45905;SDS011;31619;49.008;12.106;2023-04-09T07:15:31;22.58;;;18.83;;
45905;SDS011;31619;49.008;12.106;2023-04-09T07:17:56;22.25;;;18.30;;
45905;SDS011;31619;49.008;12.106;2023-04-09T07:20:22;21.88;;;18.67;;
45905;SDS011;31619;49.008;12.106;2023-04-09T07:22:48;23.13;;;18.35;;
45905;SDS011;31619;49.008;12.106;2023-04-09T07:25:14;21.98;;;18.83;;
45905;SDS011;31619;49.008;12.106;2023-04-09T07:27:40;19.63;;;17.08;;
45905;SDS011;31619;49.008;12.106;2023-04-09T07:30:06;18.65;;;16.42;;
45905;SDS011;31619;49.008;12.106;2023-04-09T07:32:34;19.52;;;16.75;;
45905;SDS011;31619;49.008;12.106;2023-04-09T07:35:02;20.38;;;16.70;;
45905;SDS011;31619;49.008;12.106;2023-04-09T07:37:29;17.95;;;15.98;;
45905;SDS011;31619;49.008;12.106;2023-04-09T07:39:55;19.88;;;17.75;;
45905;SDS011;31619;49.008;12.106;2023-04-09T07:42:21;20.95;;;17.17;;
45905;SDS011;31619;49.008;12.106;2023-04-09T07:44:46;20.70;;;17.65;;
45905;SDS011;31619;49.008;12.106;2023-04-09T07:47:12;21.02;;;17.90;;
45905;SDS011;31619;49.008;12.106;2023-04-09T07:49:38;20.35;;;18.13;;
45905;SDS011;31619;49.008;12.106;2023-04-09T07:52:04;23.63;;;18.67;;
45905;SDS011;31619;49.008;12.106;2023-04-09T07:54:30;20.48;;;17.63;;
45905;SDS011;31619;49.008;12.106;2023-04-09T07:56:56;21.35;;;17.73;;
45905;SDS011;31619;49.008;12.106;2023-04-09T07:59:22;19.85;;;17.42;;
45905;SDS011;31619;49.008;12.106;2023-04-09T08:01:48;20.63;;;17.48;;
45905;SDS011;31619;49.008;12.106;2023-04-09T08:04:14;20.95;;;17.98;;
45905;SDS011;31619;49.008;12.106;2023-04-09T08:06:40;22.20;;;17.20;;
45905;SDS011;31619;49.008;12.106;2023-04-09T08:09:06;18.85;;;16.90;;
45905;SDS011;31619;49.008;12.106;2023-04-09T08:11:31;20.88;;;17.77;;
45905;SDS011;31619;49.008;12.106;2023-04-09T08:13:57;18.80;;;16.75;;
45905;SDS011;31619;49.008;12.106;2023-04-09T08:16:26;21.40;;;17.55;;
45905;SDS011;31619;49.008;12.106;2023-04-09T08:18:52;20.33;;;18.13;;
45905;SDS011;31619;49.008;12.106;2023-04-09T08:21:18;23.65;;;18.02;;
45905;SDS011;31619;49.008;12.106;2023-04-09T08:23:43;19.08;;;16.83;;
45905;SDS011;31619;49.008;12.106;2023-04-09T08:26:09;18.45;;;15.75;;
45905;SDS011;31619;49.008;12.106;2023-04-09T08:28:35;21.27;;;17.88;;
45905;SDS011;31619;49.008;12.106;2023-04-09T08:31:01;22.02;;;18.75;;
45905;SDS011;31619;49.008;12.106;2023-04-09T08:33:27;19.80;;;16.92;;
45905;SDS011;31619;49.008;12.106;2023-04-09T08:35:52;22.40;;;19.17;;
45905;SDS011;31619;49.008;12.106;2023-04-09T08:38:18;20.42;;;17.83;;
45905;SDS011;31619;49.008;12.106;2023-04-09T08:40:44;23.30;;;18.10;;
45905;SDS011;31619;49.008;12.106;2023-04-09T08:43:11;19.73;;;17.05;;
45905;SDS011;31619;49.008;12.106;2023-04-09T08:45:40;19.13;;;16.95;;
45905;SDS011;31619;49.008;12.106;2023-04-09T08:48:07;18.60;;;16.67;;
45905;SDS011;31619;49.008;12.106;2023-04-09T08:50:34;16.85;;;14.85;;
45905;SDS011;31619;49.008;12.106;2023-04-09T08:53:01;18.20;;;16.05;;
45905;SDS011;31619;49.008;12.106;2023-04-09T08:55:27;16.63;;;14.88;;
45905;SDS011;31619;49.008;12.106;2023-04-09T08:57:55;17.13;;;14.95;;
45905;SDS011;31619;49.008;12.106;2023-04-09T09:00:22;17.33;;;15.55;;
45905;SDS011;31619;49.008;12.106;2023-04-09T09:03:01;18.55;;;16.25;;
45905;SDS011;31619;49.008;12.106;2023-04-09T09:05:39;18.55;;;15.90;;
45905;SDS011;31619;49.008;12.106;2023-04-09T09:08:07;17.38;;;14.98;;
45905;SDS011;31619;49.008;12.106;2023-04-09T09:10:37;16.40;;;14.80;;
45905;SDS011;31619;49.008;12.106;2023-04-09T09:13:21;17.83;;;15.02;;
45905;SDS011;31619;49.008;12.106;2023-04-09T09:15:49;16.63;;;14.93;;
45905;SDS011;31619;49.008;12.106;2023-04-09T09:18:19;17.25;;;15.50;;
45905;SDS011;31619;49.008;12.106;2023-04-09T09:20:49;17.15;;;15.35;;
45905;SDS011;31619;49.008;12.106;2023-04-09T09:23:15;17.45;;;15.55;;
45905;SDS011;31619;49.008;12.106;2023-04-09T09:26:09;19.10;;;16.52;;
45905;SDS011;31619;49.008;12.106;2023-04-09T09:28:42;16.67;;;14.95;;
45905;SDS011;31619;49.008;12.106;2023-04-09T09:31:09;16.70;;;15.07;;
45905;SDS011;31619;49.008;12.106;2023-04-09T09:33:36;16.42;;;14.82;;
45905;SDS011;31619;49.008;12.106;2023-04-09T09:36:02;16.17;;;14.48;;
45905;SDS011;31619;49.008;12.106;2023-04-09T09:38:28;15.80;;;14.20;;
45905;SDS011;31619;49.008;12.106;2023-04-09T09:40:55;15.52;;;14.02;;
45905;SDS011;31619;49.008;12.106;2023-04-09T09:43:21;15.57;;;14.07;;
45905;SDS011;31619;49.008;12.106;2023-04-09T09:45:47;15.55;;;14.02;;
45905;SDS011;31619;49.008;12.106;2023-04-09T09:48:13;16.42;;;14.82;;
45905;SDS011;31619;49.008;12.106;2023-04-09T09:50:39;16.95;;;15.23;;
45905;SDS011;31619;49.008;12.106;2023-04-09T09:53:22;16.65;;;14.45;;
45905;SDS011;31619;49.008;12.106;2023-04-09T09:55:51;14.25;;;12.75;;
45905;SDS011;31619;49.008;12.106;2023-04-09T09:58:26;15.30;;;13.57;;
45905;SDS011;31619;49.008;12.106;2023-04-09T10:00:59;13.40;;;12.20;;
45905;SDS011;31619;49.008;12.106;2023-04-09T10:03:37;13.07;;;11.88;;
45905;SDS011;31619;49.008;12.106;2023-04-09T10:06:04;12.25;;;11.05;;
45905;SDS011;31619;49.008;12.106;2023-04-09T10:08:32;10.82;;;9.82;;
45905;SDS011;31619;49.008;12.106;2023-04-09T10:11:01;11.05;;;9.93;;
45905;SDS011;31619;49.008;12.106;2023-04-09T10:13:29;10.88;;;9.85;;
45905;SDS011;31619;49.008;12.106;2023-04-09T10:16:03;11.15;;;10.10;;
45905;SDS011;31619;49.008;12.106;2023-04-09T10:18:32;11.00;;;10.00;;
45905;SDS011;31619;49.008;12.106;2023-04-09T10:23:39;12.15;;;11.02;;
45905;SDS011;31619;49.008;12.106;2023-04-09T10:26:06;10.82;;;9.77;;
45905;SDS011;31619;49.008;12.106;2023-04-09T10:28:32;11.65;;;10.57;;
45905;SDS011;31619;49.008;12.106;2023-04-09T10:30:58;10.88;;;9.90;;
45905;SDS011;31619;49.008;12.106;2023-04-09T10:33:25;10.70;;;9.80;;
45905;SDS011;31619;49.008;12.106;2023-04-09T10:35:58;10.35;;;9.45;;
45905;SDS011;31619;49.008;12.106;2023-04-09T10:38:32;8.75;;;8.05;;
45905;SDS011;31619;49.008;12.106;2023-04-09T10:41:11;9.20;;;8.40;;
45905;SDS011;31619;49.008;12.106;2023-04-09T10:43:46;9.68;;;8.88;;
45905;SDS011;31619;49.008;12.106;2023-04-09T10:46:26;9.35;;;8.55;;
45905;SDS011;31619;49.008;12.106;2023-04-09T10:49:34;10.25;;;9.35;;
45905;SDS011;31619;49.008;12.106;2023-04-09T10:57:13;10.80;;;9.90;;
45905;SDS011;31619;49.008;12.106;2023-04-09T10:59:44;9.95;;;9.15;;
45905;SDS011;31619;49.008;12.106;2023-04-09T11:03:02;11.77;;;10.68;;
45905;SDS011;31619;49.008;12.106;2023-04-09T11:05:27;10.77;;;9.93;;
45905;SDS011;31619;49.008;12.106;2023-04-09T11:08:03;10.43;;;9.52;;
45905;SDS011;31619;49.008;12.106;2023-04-09T11:10:30;11.00;;;10.07;;
45905;SDS011;31619;49.008;12.106;2023-04-09T11:12:56;10.75;;;9.85;;
45905;SDS011;31619;49.008;12.106;2023-04-09T11:15:21;12.38;;;11.27;;
45905;SDS011;31619;49.008;12.106;2023-04-09T11:17:47;11.40;;;10.40;;
45905;SDS011;31619;49.008;12.106;2023-04-09T11:20:18;11.82;;;10.73;;
45905;SDS011;31619;49.008;12.106;2023-04-09T11:22:46;10.82;;;9.93;;
45905;SDS011;31619;49.008;12.106;2023-04-09T11:25:19;11.32;;;10.32;;
45905;SDS011;31619;49.008;12.106;2023-04-09T11:27:45;10.45;;;9.55;;
45905;SDS011;31619;49.008;12.106;2023-04-09T11:30:11;9.65;;;8.85;;
45905;SDS011;31619;49.008;12.106;2023-04-09T11:32:37;10.90;;;9.90;;
45905;SDS011;31619;49.008;12.106;2023-04-09T11:35:02;10.13;;;9.30;;
45905;SDS011;31619;49.008;12.106;2023-04-09T11:37:28;10.80;;;9.90;;
45905;SDS011;31619;49.008;12.106;2023-04-09T11:39:54;10.30;;;9.30;;
45905;SDS011;31619;49.008;12.106;2023-04-09T11:42:21;9.70;;;8.90;;
45905;SDS011;31619;49.008;12.106;2023-04-09T11:44:49;9.55;;;8.75;;
45905;SDS011;31619;49.008;12.106;2023-04-09T11:47:16;9.23;;;8.43;;
45905;SDS011;31619;49.008;12.106;2023-04-09T11:49:42;8.95;;;8.25;;
45905;SDS011;31619;49.008;12.106;2023-04-09T11:52:09;16.85;;;9.18;;
45905;SDS011;31619;49.008;12.106;2023-04-09T11:54:35;9.30;;;8.60;;
45905;SDS011;31619;49.008;12.106;2023-04-09T11:57:04;10.25;;;9.45;;
45905;SDS011;31619;49.008;12.106;2023-04-09T11:59:29;10.23;;;9.30;;
45905;SDS011;31619;49.008;12.106;2023-04-09T12:01:58;9.07;;;8.38;;
45905;SDS011;31619;49.008;12.106;2023-04-09T12:04:24;10.60;;;9.70;;
45905;SDS011;31619;49.008;12.106;2023-04-09T12:06:50;9.50;;;8.80;;
45905;SDS011;31619;49.008;12.106;2023-04-09T12:09:21;10.32;;;9.35;;
45905;SDS011;31619;49.008;12.106;2023-04-09T12:11:47;9.25;;;8.55;;
45905;SDS011;31619;49.008;12.106;2023-04-09T12:14:13;9.98;;;9.18;;
45905;SDS011;31619;49.008;12.106;2023-04-09T12:16:40;9.43;;;8.63;;
45905;SDS011;31619;49.008;12.106;2023-04-09T12:19:08;9.00;;;8.20;;
45905;SDS011;31619;49.008;12.106;2023-04-09T12:21:44;8.88;;;8.18;;
45905;SDS011;31619;49.008;12.106;2023-04-09T12:24:17;10.70;;;9.85;;
45905;SDS011;31619;49.008;12.106;2023-04-09T12:26:45;9.88;;;9.07;;
45905;SDS011;31619;49.008;12.106;2023-04-09T12:29:15;9.73;;;8.93;;
45905;SDS011;31619;49.008;12.106;2023-04-09T12:31:45;10.23;;;9.32;;
45905;SDS011;31619;49.008;12.106;2023-04-09T12:34:11;9.90;;;9.02;;
45905;SDS011;31619;49.008;12.106;2023-04-09T12:36:40;10.35;;;9.45;;
45905;SDS011;31619;49.008;12.106;2023-04-09T12:39:06;10.30;;;9.40;;
45905;SDS011;31619;49.008;12.106;2023-04-09T12:41:32;10.55;;;9.65;;
45905;SDS011;31619;49.008;12.106;2023-04-09T12:43:58;9.65;;;8.85;;
45905;SDS011;31619;49.008;12.106;2023-04-09T12:46:24;9.63;;;8.82;;
45905;SDS011;31619;49.008;12.106;2023-04-09T12:48:51;9.32;;;8.52;;
45905;SDS011;31619;49.008;12.106;2023-04-09T12:51:16;10.15;;;9.27;;
45905;SDS011;31619;49.008;12.106;2023-04-09T12:53:42;10.50;;;9.63;;
45905;SDS011;31619;49.008;12.106;2023-04-09T12:56:07;9.93;;;9.02;;
45905;SDS011;31619;49.008;12.106;2023-04-09T12:58:33;10.48;;;9.43;;
45905;SDS011;31619;49.008;12.106;2023-04-09T13:01:00;10.05;;;9.25;;
45905;SDS011;31619;49.008;12.106;2023-04-09T13:03:25;8.75;;;7.95;;
45905;SDS011;31619;49.008;12.106;2023-04-09T13:05:51;8.57;;;7.88;;
45905;SDS011;31619;49.008;12.106;2023-04-09T13:08:17;7.82;;;7.22;;
45905;SDS011;31619;49.008;12.106;2023-04-09T13:10:42;8.05;;;7.45;;
45905;SDS011;31619;49.008;12.106;2023-04-09T13:13:08;8.13;;;7.43;;
45905;SDS011;31619;49.008;12.106;2023-04-09T13:15:38;8.35;;;7.75;;
45905;SDS011;31619;49.008;12.106;2023-04-09T13:18:04;8.50;;;7.80;;
45905;SDS011;31619;49.008;12.106;2023-04-09T13:20:29;8.30;;;7.60;;
45905;SDS011;31619;49.008;12.106;2023-04-09T13:22:55;8.18;;;7.47;;
45905;SDS011;31619;49.008;12.106;2023-04-09T13:25:21;7.35;;;6.75;;
45905;SDS011;31619;49.008;12.106;2023-04-09T13:27:47;7.22;;;6.63;;
45905;SDS011;31619;49.008;12.106;2023-04-09T13:30:12;6.65;;;6.15;;
45905;SDS011;31619;49.008;12.106;2023-04-09T13:32:38;7.35;;;6.75;;
45905;SDS011;31619;49.008;12.106;2023-04-09T13:35:04;7.88;;;7.28;;
45905;SDS011;31619;49.008;12.106;2023-04-09T13:37:30;7.60;;;7.03;;
45905;SDS011;31619;49.008;12.106;2023-04-09T13:39:56;7.80;;;7.20;;
45905;SDS011;31619;49.008;12.106;2023-04-09T13:42:22;7.03;;;6.43;;
45905;SDS011;31619;49.008;12.106;2023-04-09T13:44:47;7.05;;;6.55;;
45905;SDS011;31619;49.008;12.106;2023-04-09T13:47:14;7.18;;;6.65;;
45905;SDS011;31619;49.008;12.106;2023-04-09T13:49:41;7.50;;;6.80;;
45905;SDS011;31619;49.008;12.106;2023-04-09T13:52:07;7.72;;;7.10;;
45905;SDS011;31619;49.008;12.106;2023-04-09T13:54:33;6.97;;;6.38;;
45905;SDS011;31619;49.008;12.106;2023-04-09T13:56:59;7.25;;;6.68;;
45905;SDS011;31619;49.008;12.106;2023-04-09T13:59:25;7.25;;;6.65;;
45905;SDS011;31619;49.008;12.106;2023-04-09T14:01:51;7.43;;;6.78;;
45905;SDS011;31619;49.008;12.106;2023-04-09T14:04:16;7.82;;;7.22;;
45905;SDS011;31619;49.008;12.106;2023-04-09T14:06:43;6.70;;;6.20;;
45905;SDS011;31619;49.008;12.106;2023-04-09T14:09:09;7.50;;;6.80;;
45905;SDS011;31619;49.008;12.106;2023-04-09T14:11:35;7.15;;;6.60;;
45905;SDS011;31619;49.008;12.106;2023-04-09T14:14:01;6.63;;;6.13;;
45905;SDS011;31619;49.008;12.106;2023-04-09T14:16:26;6.90;;;6.40;;
45905;SDS011;31619;49.008;12.106;2023-04-09T14:18:54;6.70;;;6.20;;
45905;SDS011;31619;49.008;12.106;2023-04-09T14:21:20;6.90;;;6.38;;
45905;SDS011;31619;49.008;12.106;2023-04-09T14:23:46;7.10;;;6.60;;
45905;SDS011;31619;49.008;12.106;2023-04-09T14:26:11;6.88;;;6.38;;
45905;SDS011;31619;49.008;12.106;2023-04-09T14:28:37;7.13;;;6.63;;
45905;SDS011;31619;49.008;12.106;2023-04-09T14:31:03;7.18;;;6.60;;
45905;SDS011;31619;49.008;12.106;2023-04-09T14:33:29;7.88;;;7.28;;
45905;SDS011;31619;49.008;12.106;2023-04-09T14:35:54;7.03;;;6.45;;